Time;durP1;ratioP1;P1;durP2;ratioP2;P2;SDS_P1;SDS_P2;PMS_P1;PMS_P2;Temp;Humidity;BMP_temperature;BMP_pressure;BME280_temperature;BME280_humidity;BME280_pressure;Samples;Min_cycle;Max_cycle;Signal;HPM_P1;HPM_P2
2022/06/21 00:01:24;;;;;;;6.28;3.17;;;;;;;;;;6326637;28;20043;-75
2022/06/21 00:04:25;;;;;;;5.32;3.28;;;;;;;;;;6323169;28;20044;-75
2022/06/21 00:07:28;;;;;;;5.40;2.85;;;;;;;;;;6328484;28;20043;-75
2022/06/21 00:10:34;;;;;;;5.85;3.47;;;;;;;;;;6328335;28;20055;-75
2022/06/21 00:13:37;;;;;;;6.05;3.97;;;;;;;;;;6323973;28;20044;-75
2022/06/21 00:16:38;;;;;;;5.30;3.00;;;;;;;;;;6324301;28;20067;-75
2022/06/21 00:19:43;;;;;;;5.50;3.20;;;;;;;;;;6323300;28;20050;-75
2022/06/21 00:22:45;;;;;;;5.43;2.92;;;;;;;;;;6322374;28;20055;-75
2022/06/21 00:25:47;;;;;;;7.68;3.10;;;;;;;;;;6321475;28;20070;-74
2022/06/21 00:28:50;;;;;;;6.10;3.10;;;;;;;;;;6324570;28;20176;-74
2022/06/21 00:31:53;;;;;;;;;;;;;;;;;;6327560;28;20055;-72
2022/06/21 00:34:54;;;;;;;5.15;2.70;;;;;;;;;;6324799;28;19950;-75
2022/06/21 00:37:56;;;;;;;5.28;3.17;;;;;;;;;;6324140;28;20052;-74
2022/06/21 00:41:00;;;;;;;5.82;3.10;;;;;;;;;;6326427;28;20101;-75
2022/06/21 00:44:05;;;;;;;5.47;3.08;;;;;;;;;;6320872;28;20059;-74
2022/06/21 00:47:14;;;;;;;6.82;3.63;;;;;;;;;;6321988;28;20050;-75
2022/06/21 00:50:20;;;;;;;6.88;3.50;;;;;;;;;;6327452;28;20044;-75
2022/06/21 00:53:25;;;;;;;6.75;3.60;;;;;;;;;;6323793;28;20048;-74
2022/06/21 00:56:29;;;;;;;6.55;3.38;;;;;;;;;;6321298;28;20053;-75
2022/06/21 00:59:34;;;;;;;7.80;3.35;;;;;;;;;;6323139;28;20082;-75
2022/06/21 01:02:36;;;;;;;6.93;3.30;;;;;;;;;;6319378;28;20064;-75
2022/06/21 01:05:40;;;;;;;5.67;3.20;;;;;;;;;;6319290;28;20701;-74
2022/06/21 01:08:44;;;;;;;4.03;3.10;;;;;;;;;;6320246;28;20064;-75
2022/06/21 01:11:48;;;;;;;7.50;3.78;;;;;;;;;;6323267;28;20044;-76
2022/06/21 01:14:55;;;;;;;6.10;3.25;;;;;;;;;;6320801;28;20044;-75
2022/06/21 01:17:58;;;;;;;7.82;4.00;;;;;;;;;;6323162;28;20228;-74
2022/06/21 01:21:01;;;;;;;5.55;3.72;;;;;;;;;;6319902;28;20089;-74
2022/06/21 01:24:11;;;;;;;4.73;3.00;;;;;;;;;;6318931;28;20342;-74
2022/06/21 01:27:14;;;;;;;6.88;3.10;;;;;;;;;;6317997;28;20097;-73
2022/06/21 01:30:15;;;;;;;5.72;3.53;;;;;;;;;;6321145;28;20052;-74
2022/06/21 01:33:25;;;;;;;7.88;3.53;;;;;;;;;;6320931;28;20124;-74
2022/06/21 01:36:30;;;;;;;5.88;3.40;;;;;;;;;;6315293;28;20094;-74
2022/06/21 01:39:35;;;;;;;6.00;3.22;;;;;;;;;;6320582;28;20109;-74
2022/06/21 01:42:40;;;;;;;7.32;3.17;;;;;;;;;;6323062;28;20056;-74
2022/06/21 01:45:44;;;;;;;9.40;3.40;;;;;;;;;;6320661;28;20353;-75
2022/06/21 01:48:48;;;;;;;3.30;2.95;;;;;;;;;;6317655;28;20143;-75
2022/06/21 01:51:53;;;;;;;7.10;3.40;;;;;;;;;;6322043;28;20052;-75
2022/06/21 01:54:58;;;;;;;9.65;3.25;;;;;;;;;;6322168;28;20054;-74
2022/06/21 01:58:03;;;;;;;4.43;3.22;;;;;;;;;;6321295;28;20107;-75
2022/06/21 02:01:14;;;;;;;6.65;3.38;;;;;;;;;;6322535;28;20039;-74
2022/06/21 02:04:20;;;;;;;7.88;3.15;;;;;;;;;;6323774;28;20149;-76
2022/06/21 02:07:25;;;;;;;4.97;3.30;;;;;;;;;;6320556;28;20040;-75
2022/06/21 02:10:29;;;;;;;5.32;3.30;;;;;;;;;;6318189;28;20351;-74
2022/06/21 02:13:34;;;;;;;4.35;3.58;;;;;;;;;;6321074;28;20052;-76
2022/06/21 02:16:37;;;;;;;5.15;3.92;;;;;;;;;;6319060;28;20059;-73
2022/06/21 02:19:41;;;;;;;7.40;3.78;;;;;;;;;;6321200;28;20048;-73
2022/06/21 02:22:43;;;;;;;6.50;3.80;;;;;;;;;;6318397;28;20056;-75
2022/06/21 02:25:45;;;;;;;5.10;3.72;;;;;;;;;;6318181;28;20140;-77
2022/06/21 02:28:48;;;;;;;4.78;3.88;;;;;;;;;;6320442;28;20102;-75
2022/06/21 02:31:50;;;;;;;6.75;3.80;;;;;;;;;;6319069;28;20044;-76
2022/06/21 02:34:55;;;;;;;3.38;2.65;;;;;;;;;;6318578;28;20044;-76
2022/06/21 02:37:59;;;;;;;5.15;3.17;;;;;;;;;;6324714;28;20048;-76
2022/06/21 02:41:06;;;;;;;6.03;3.25;;;;;;;;;;6325591;28;20052;-74
2022/06/21 02:44:13;;;;;;;4.70;3.13;;;;;;;;;;6324177;28;20216;-75
2022/06/21 02:47:17;;;;;;;5.65;3.47;;;;;;;;;;6324747;28;20064;-74
2022/06/21 02:50:36;;;;;;;5.03;3.45;;;;;;;;;;6328364;28;20044;-74
2022/06/21 02:53:43;;;;;;;6.18;3.45;;;;;;;;;;6328099;28;20048;-76
2022/06/21 02:56:47;;;;;;;4.97;3.58;;;;;;;;;;6323591;28;20086;-75
2022/06/21 02:59:52;;;;;;;5.25;3.33;;;;;;;;;;6324609;28;20331;-75
2022/06/21 03:02:54;;;;;;;6.20;3.50;;;;;;;;;;6328591;28;20052;-75
2022/06/21 03:05:58;;;;;;;4.47;3.55;;;;;;;;;;6327967;28;20282;-75
2022/06/21 03:09:02;;;;;;;6.88;3.50;;;;;;;;;;6327821;28;20077;-75
2022/06/21 03:12:07;;;;;;;8.40;3.30;;;;;;;;;;6327805;28;20044;-75
2022/06/21 03:15:12;;;;;;;5.35;3.25;;;;;;;;;;6329782;28;20055;-74
2022/06/21 03:18:17;;;;;;;9.45;3.47;;;;;;;;;;6329481;28;20048;-74
2022/06/21 03:21:23;;;;;;;6.78;3.60;;;;;;;;;;6330533;28;20051;-74
2022/06/21 03:24:27;;;;;;;8.07;3.72;;;;;;;;;;6326141;28;20093;-74
2022/06/21 03:27:33;;;;;;;4.78;3.67;;;;;;;;;;6325866;28;20056;-74
2022/06/21 03:30:37;;;;;;;5.30;3.10;;;;;;;;;;6328585;28;20036;-74
2022/06/21 03:33:41;;;;;;;4.00;3.17;;;;;;;;;;6325382;28;20330;-74
2022/06/21 03:36:43;;;;;;;8.15;3.70;;;;;;;;;;6330245;28;20075;-74
2022/06/21 03:43:08;;;;;;;5.75;3.85;;;;;;;;;;6326628;28;20037;-75
2022/06/21 03:46:15;;;;;;;8.30;3.90;;;;;;;;;;6329206;28;20051;-76
2022/06/21 03:49:23;;;;;;;3.88;3.30;;;;;;;;;;6324463;28;20078;-74
2022/06/21 03:52:42;;;;;;;4.22;3.35;;;;;;;;;;6327542;28;20048;-73
2022/06/21 03:55:48;;;;;;;4.60;3.30;;;;;;;;;;6326954;28;20048;-74
2022/06/21 03:58:56;;;;;;;7.68;3.40;;;;;;;;;;6325062;28;20044;-74
2022/06/21 04:02:04;;;;;;;8.48;3.42;;;;;;;;;;6325892;28;20106;-74
2022/06/21 04:05:10;;;;;;;5.90;3.42;;;;;;;;;;6326203;28;20212;-74
2022/06/21 04:08:14;;;;;;;6.90;3.55;;;;;;;;;;6326764;28;20052;-74
2022/06/21 04:11:20;;;;;;;8.05;3.88;;;;;;;;;;6326506;28;20056;-73
2022/06/21 04:14:26;;;;;;;6.35;3.22;;;;;;;;;;6324581;28;20285;-73
2022/06/21 04:17:33;;;;;;;6.00;3.70;;;;;;;;;;6326725;28;20064;-74
2022/06/21 04:20:40;;;;;;;7.78;3.35;;;;;;;;;;6328519;28;20068;-75
2022/06/21 04:23:45;;;;;;;6.10;3.88;;;;;;;;;;6324808;28;20339;-74
2022/06/21 04:26:51;;;;;;;6.82;3.60;;;;;;;;;;6321146;28;20048;-74
2022/06/21 04:29:55;;;;;;;5.28;3.38;;;;;;;;;;6325557;28;20040;-74
2022/06/21 04:33:01;;;;;;;6.45;3.47;;;;;;;;;;6327243;28;20560;-75
2022/06/21 04:36:07;;;;;;;4.65;3.25;;;;;;;;;;6322889;28;20055;-75
2022/06/21 04:39:13;;;;;;;7.53;3.47;;;;;;;;;;6325272;28;20242;-75
2022/06/21 04:42:19;;;;;;;3.90;3.50;;;;;;;;;;6325576;28;20040;-75
2022/06/21 04:45:27;;;;;;;6.30;3.47;;;;;;;;;;6325214;28;20052;-74
2022/06/21 04:48:52;;;;;;;7.68;3.40;;;;;;;;;;6322026;28;20107;-77
2022/06/21 04:51:56;;;;;;;13.95;4.05;;;;;;;;;;6322218;28;20044;-75
2022/06/21 04:54:58;;;;;;;5.90;3.47;;;;;;;;;;6322402;28;20063;-86
2022/06/21 04:58:00;;;;;;;15.63;3.80;;;;;;;;;;6323787;28;20056;-77
2022/06/21 05:01:29;;;;;;;7.22;3.50;;;;;;;;;;6325549;28;20086;-76
2022/06/21 05:04:28;;;;;;;6.10;3.58;;;;;;;;;;6325128;28;20376;-76
2022/06/21 05:07:31;;;;;;;9.52;3.53;;;;;;;;;;6329055;28;20389;-74
2022/06/21 05:10:34;;;;;;;8.75;3.30;;;;;;;;;;6325169;28;20270;-76
2022/06/21 05:13:39;;;;;;;6.55;3.28;;;;;;;;;;6323143;28;20052;-76
2022/06/21 05:16:42;;;;;;;5.82;3.45;;;;;;;;;;6323058;28;20048;-74
2022/06/21 05:19:48;;;;;;;7.55;3.20;;;;;;;;;;6326918;28;20121;-76
2022/06/21 05:23:06;;;;;;;5.90;3.50;;;;;;;;;;6327657;28;20047;-77
2022/06/21 05:26:12;;;;;;;7.38;3.33;;;;;;;;;;6326800;28;20066;-75
2022/06/21 05:29:18;;;;;;;7.68;3.22;;;;;;;;;;6327308;28;20046;-74
2022/06/21 05:32:22;;;;;;;5.93;3.80;;;;;;;;;;6324352;28;20059;-76
2022/06/21 05:35:27;;;;;;;5.38;3.17;;;;;;;;;;6326366;28;20058;-75
2022/06/21 05:38:31;;;;;;;6.78;3.30;;;;;;;;;;6323193;28;20056;-76
2022/06/21 05:41:37;;;;;;;8.13;3.42;;;;;;;;;;6326631;28;20068;-76
2022/06/21 05:44:44;;;;;;;8.50;3.15;;;;;;;;;;6321909;28;20060;-76
2022/06/21 05:47:50;;;;;;;5.50;3.20;;;;;;;;;;6323874;28;20250;-76
2022/06/21 05:50:53;;;;;;;8.90;3.20;;;;;;;;;;6326517;28;20404;-74
2022/06/21 05:53:56;;;;;;;10.07;3.55;;;;;;;;;;6327900;28;20307;-74
2022/06/21 05:57:01;;;;;;;5.15;3.35;;;;;;;;;;6322703;28;20090;-74
2022/06/21 06:00:04;;;;;;;7.97;3.97;;;;;;;;;;6324392;28;20048;-76
2022/06/21 06:03:11;;;;;;;6.65;3.45;;;;;;;;;;6323138;28;20052;-76
2022/06/21 06:06:18;;;;;;;9.57;4.05;;;;;;;;;;6319286;28;20416;-74
2022/06/21 06:09:22;;;;;;;6.38;3.08;;;;;;;;;;6327657;28;20216;-74
2022/06/21 06:12:27;;;;;;;10.20;3.50;;;;;;;;;;6320300;28;20335;-74
2022/06/21 06:15:32;;;;;;;5.85;3.50;;;;;;;;;;6323591;28;20059;-73
2022/06/21 06:18:40;;;;;;;9.30;3.58;;;;;;;;;;6322822;28;20055;-74
2022/06/21 06:21:46;;;;;;;8.10;3.90;;;;;;;;;;6325708;28;20335;-73
2022/06/21 06:24:57;;;;;;;8.60;3.60;;;;;;;;;;6331519;28;20054;-76
2022/06/21 06:28:03;;;;;;;7.00;3.90;;;;;;;;;;6323733;28;20070;-74
2022/06/21 06:31:09;;;;;;;6.78;3.30;;;;;;;;;;6330893;28;20048;-73
2022/06/21 06:34:14;;;;;;;4.85;3.45;;;;;;;;;;6328381;28;20045;-74
2022/06/21 06:37:22;;;;;;;8.63;3.20;;;;;;;;;;6330528;28;20036;-71
2022/06/21 06:40:27;;;;;;;6.95;3.70;;;;;;;;;;6329313;28;20062;-72
2022/06/21 06:43:33;;;;;;;7.70;3.70;;;;;;;;;;6327777;28;20070;-75
2022/06/21 06:46:37;;;;;;;7.30;3.38;;;;;;;;;;6320045;28;20052;-70
2022/06/21 06:49:43;;;;;;;8.07;4.15;;;;;;;;;;6328366;28;20057;-73
2022/06/21 06:52:49;;;;;;;7.32;3.72;;;;;;;;;;6329898;28;20327;-72
2022/06/21 06:55:53;;;;;;;12.38;3.47;;;;;;;;;;6324835;28;20259;-74
2022/06/21 06:58:58;;;;;;;10.93;3.40;;;;;;;;;;6326992;28;20054;-74
2022/06/21 07:02:03;;;;;;;7.18;3.17;;;;;;;;;;6325400;28;20340;-74
2022/06/21 07:05:12;;;;;;;10.57;3.50;;;;;;;;;;6324803;28;20047;-72
2022/06/21 07:08:21;;;;;;;5.05;3.55;;;;;;;;;;6329115;28;20044;-74
2022/06/21 07:11:45;;;;;;;5.10;3.25;;;;;;;;;;6326429;28;20051;-79
2022/06/21 07:14:47;;;;;;;;;;;;;;;;;;6319231;28;20266;-74
2022/06/21 07:17:52;;;;;;;6.03;3.60;;;;;;;;;;6325419;28;19915;-74
2022/06/21 07:20:53;;;;;;;7.65;3.30;;;;;;;;;;6325864;28;20071;-74
2022/06/21 07:23:59;;;;;;;7.47;3.40;;;;;;;;;;6323205;28;20056;-75
2022/06/21 07:27:03;;;;;;;12.38;3.75;;;;;;;;;;6320693;28;20048;-76
2022/06/21 07:30:07;;;;;;;7.38;3.90;;;;;;;;;;6325235;28;20055;-75
2022/06/21 07:33:11;;;;;;;9.02;3.42;;;;;;;;;;6321633;28;20048;-75
2022/06/21 07:36:18;;;;;;;8.63;3.63;;;;;;;;;;6323050;28;20059;-79
2022/06/21 07:39:24;;;;;;;9.07;3.30;;;;;;;;;;6325014;28;20133;-75
2022/06/21 07:42:32;;;;;;;7.82;3.40;;;;;;;;;;6321498;28;20324;-76
2022/06/21 07:45:38;;;;;;;7.65;3.42;;;;;;;;;;6326919;28;20059;-76
2022/06/21 07:48:44;;;;;;;6.00;3.70;;;;;;;;;;6326259;28;20063;-80
2022/06/21 07:51:49;;;;;;;8.07;3.58;;;;;;;;;;6326316;28;20052;-76
2022/06/21 07:54:56;;;;;;;7.10;3.30;;;;;;;;;;6326232;28;20044;-72
2022/06/21 07:58:02;;;;;;;7.50;3.72;;;;;;;;;;6328646;28;20540;-69
2022/06/21 08:08:00;;;;;;;7.07;3.80;;;;;;;;;;6327412;28;20060;-73
2022/06/21 08:11:09;;;;;;;9.15;4.00;;;;;;;;;;6324088;28;20040;-73
2022/06/21 08:14:11;;;;;;;10.68;3.63;;;;;;;;;;6327685;28;20045;-73
2022/06/21 08:17:18;;;;;;;9.50;3.88;;;;;;;;;;6324311;28;20052;-74
2022/06/21 08:20:23;;;;;;;6.68;3.40;;;;;;;;;;6325308;28;20331;-74
2022/06/21 08:23:30;;;;;;;6.70;3.70;;;;;;;;;;6322593;28;20096;-74
2022/06/21 08:26:37;;;;;;;7.80;3.53;;;;;;;;;;6325934;28;20231;-74
2022/06/21 08:29:44;;;;;;;5.07;3.50;;;;;;;;;;6326152;28;20068;-75
2022/06/21 08:32:51;;;;;;;8.85;3.50;;;;;;;;;;6324922;28;20231;-74
2022/06/21 08:35:57;;;;;;;10.00;3.90;;;;;;;;;;6326625;28;20040;-73
2022/06/21 08:39:02;;;;;;;8.50;4.05;;;;;;;;;;6322461;28;20094;-76
2022/06/21 08:42:17;;;;;;;8.77;3.58;;;;;;;;;;6326873;28;20078;-77
2022/06/21 08:45:55;;;;;;;7.05;3.30;;;;;;;;;;6324873;28;20231;-73
2022/06/21 08:49:06;;;;;;;7.80;3.55;;;;;;;;;;6223112;28;20046;-78
2022/06/21 08:52:34;;;;;;;6.25;3.42;;;;;;;;;;6223008;28;20061;-78
2022/06/21 08:55:42;;;;;;;6.97;3.50;;;;;;;;;;6225163;28;20058;-82
2022/06/21 08:58:59;;;;;;;4.80;3.42;;;;;;;;;;6219914;28;20196;-75
2022/06/21 09:02:06;;;;;;;9.50;3.70;;;;;;;;;;6222068;28;20267;-76
2022/06/21 09:05:17;;;;;;;6.95;3.67;;;;;;;;;;6223094;28;20310;-77
2022/06/21 09:08:45;;;;;;;7.78;3.50;;;;;;;;;;6219684;28;20120;-77
2022/06/21 09:11:54;;;;;;;12.43;4.57;;;;;;;;;;6224151;28;20058;-78
2022/06/21 09:15:12;;;;;;;6.38;3.40;;;;;;;;;;6222025;28;20059;-77
2022/06/21 09:18:32;;;;;;;6.55;3.17;;;;;;;;;;6222798;28;20064;-77
2022/06/21 09:21:45;;;;;;;4.65;3.60;;;;;;;;;;6224164;28;20053;-75
2022/06/21 09:24:56;;;;;;;7.82;3.65;;;;;;;;;;6265386;28;20052;-77
2022/06/21 09:28:06;;;;;;;6.30;3.63;;;;;;;;;;6323844;28;20044;-74
2022/06/21 09:31:17;;;;;;;8.90;4.05;;;;;;;;;;6323090;28;20067;-78
2022/06/21 09:34:30;;;;;;;5.97;3.53;;;;;;;;;;6325563;28;20093;-82
2022/06/21 09:37:34;;;;;;;;;;;;;;;;;;6322168;28;20044;-80
2022/06/21 09:40:40;;;;;;;8.40;3.78;;;;;;;;;;6324176;28;19925;-75
2022/06/21 09:43:56;;;;;;;7.40;3.78;;;;;;;;;;6321273;28;20054;-75
2022/06/21 09:47:05;;;;;;;5.75;3.25;;;;;;;;;;6326730;28;20059;-75
2022/06/21 09:50:13;;;;;;;6.05;3.90;;;;;;;;;;6325239;28;20085;-74
2022/06/21 09:53:21;;;;;;;7.18;3.28;;;;;;;;;;6320722;28;20043;-75
2022/06/21 09:56:28;;;;;;;8.35;3.80;;;;;;;;;;6323697;28;20051;-75
2022/06/21 09:59:35;;;;;;;6.30;3.38;;;;;;;;;;6329122;28;20077;-75
2022/06/21 10:02:46;;;;;;;7.00;3.33;;;;;;;;;;6328229;28;20056;-75
2022/06/21 10:05:51;;;;;;;9.60;3.58;;;;;;;;;;6330168;28;20060;-76
2022/06/21 10:09:10;;;;;;;6.97;3.67;;;;;;;;;;6331087;28;20048;-77
2022/06/21 10:12:20;;;;;;;8.30;3.80;;;;;;;;;;6329068;28;20339;-75
2022/06/21 10:15:34;;;;;;;10.90;3.65;;;;;;;;;;6326871;28;20052;-75
2022/06/21 10:18:55;;;;;;;8.95;3.63;;;;;;;;;;6325404;28;20743;-76
2022/06/21 10:22:08;;;;;;;11.50;3.63;;;;;;;;;;6326437;28;20098;-75
2022/06/21 10:25:26;;;;;;;8.45;3.70;;;;;;;;;;6324143;28;20327;-78
2022/06/21 10:28:48;;;;;;;6.80;3.80;;;;;;;;;;6325425;28;20044;-76
2022/06/21 10:31:58;;;;;;;7.43;3.85;;;;;;;;;;6330745;28;20145;-77
2022/06/21 10:35:17;;;;;;;6.43;3.50;;;;;;;;;;6328686;28;20243;-74
2022/06/21 10:38:28;;;;;;;5.75;4.22;;;;;;;;;;6327663;28;20051;-76
2022/06/21 10:41:40;;;;;;;8.63;3.92;;;;;;;;;;6327286;28;20044;-75
2022/06/21 10:45:01;;;;;;;6.93;3.72;;;;;;;;;;6324893;28;20425;-75
2022/06/21 10:48:27;;;;;;;9.65;3.75;;;;;;;;;;6325640;28;20072;-75
2022/06/21 10:51:41;;;;;;;5.72;4.10;;;;;;;;;;6325246;28;20066;-75
2022/06/21 10:54:59;;;;;;;7.05;4.20;;;;;;;;;;6324180;28;20056;-74
2022/06/21 10:58:08;;;;;;;9.13;4.13;;;;;;;;;;6324680;28;20106;-81
2022/06/21 11:01:19;;;;;;;12.70;4.38;;;;;;;;;;6324941;28;20345;-81
2022/06/21 11:04:34;;;;;;;6.97;4.00;;;;;;;;;;6327922;28;20261;-86
2022/06/21 11:07:42;;;;;;;5.00;3.50;;;;;;;;;;6325163;28;20270;-79
2022/06/21 11:10:47;;;;;;;6.78;3.72;;;;;;;;;;6321579;28;20089;-81
2022/06/21 11:14:05;;;;;;;7.70;4.00;;;;;;;;;;6325269;28;20097;-78
2022/06/21 11:17:14;;;;;;;8.75;4.07;;;;;;;;;;6320997;28;20053;-83
2022/06/21 11:20:22;;;;;;;8.18;3.88;;;;;;;;;;6321991;28;20052;-82
2022/06/21 11:23:36;;;;;;;6.63;3.80;;;;;;;;;;6325983;28;20118;-81
2022/06/21 11:26:45;;;;;;;8.05;4.40;;;;;;;;;;6323904;28;20185;-85
2022/06/21 11:29:50;;;;;;;19.38;4.00;;;;;;;;;;6326122;28;20054;-83
2022/06/21 11:32:59;;;;;;;9.40;4.20;;;;;;;;;;6320395;28;20040;-82
2022/06/21 11:36:06;;;;;;;4.95;3.42;;;;;;;;;;6326674;28;20059;-81
2022/06/21 11:39:25;;;;;;;11.38;4.43;;;;;;;;;;6326973;28;20101;-81
2022/06/21 11:42:33;;;;;;;8.90;3.85;;;;;;;;;;6326527;28;20342;-79
2022/06/21 11:45:41;;;;;;;7.72;3.80;;;;;;;;;;6324650;28;20051;-78
2022/06/21 11:49:03;;;;;;;8.98;3.97;;;;;;;;;;6323935;28;20052;-78
2022/06/21 11:52:34;;;;;;;6.40;3.70;;;;;;;;;;6325289;28;20051;-79
2022/06/21 11:55:41;;;;;;;8.40;3.83;;;;;;;;;;6322344;28;20059;-79
2022/06/21 11:58:47;;;;;;;7.28;3.85;;;;;;;;;;6328845;28;20100;-76
2022/06/21 12:01:53;;;;;;;6.28;3.65;;;;;;;;;;6325963;28;20082;-83
2022/06/21 12:04:59;;;;;;;9.10;3.80;;;;;;;;;;6324488;28;20341;-78
2022/06/21 12:08:03;;;;;;;12.82;4.50;;;;;;;;;;6325357;28;20102;-75
2022/06/21 12:11:14;;;;;;;8.60;4.53;;;;;;;;;;6320549;28;20072;-76
2022/06/21 12:14:26;;;;;;;6.15;4.15;;;;;;;;;;6319942;28;20335;-78
2022/06/21 12:17:38;;;;;;;8.93;4.53;;;;;;;;;;6323614;28;20059;-89
2022/06/21 12:20:42;;;;;;;10.63;4.70;;;;;;;;;;6317664;28;20075;-86
2022/06/21 12:23:49;;;;;;;8.50;4.70;;;;;;;;;;6318731;28;20052;-77
2022/06/21 12:26:54;;;;;;;8.57;3.70;;;;;;;;;;6323537;28;20220;-76
2022/06/21 12:29:59;;;;;;;10.48;3.90;;;;;;;;;;6318189;28;20051;-72
2022/06/21 12:33:03;;;;;;;8.80;4.57;;;;;;;;;;6323211;28;20283;-78
2022/06/21 12:36:22;;;;;;;7.03;4.30;;;;;;;;;;6319428;28;20382;-75
2022/06/21 12:39:26;;;;;;;8.25;3.83;;;;;;;;;;6307334;28;20050;-77
2022/06/21 12:42:49;;;;;;;8.70;4.20;;;;;;;;;;6243961;27;21007;-77
2022/06/21 12:46:04;;;;;;;8.60;4.60;;;;;;;;;;6254196;28;20058;-76
2022/06/21 12:49:30;;;;;;;12.55;4.60;;;;;;;;;;6241027;28;20271;-77
2022/06/21 12:52:36;;;;;;;10.15;4.80;;;;;;;;;;6240480;28;20395;-82
2022/06/21 12:55:44;;;;;;;5.63;3.95;;;;;;;;;;6243213;28;20065;-76
2022/06/21 12:59:09;;;;;;;9.93;4.22;;;;;;;;;;6237695;28;20049;-76
2022/06/21 13:02:25;;;;;;;7.30;3.90;;;;;;;;;;6240529;28;20056;-76
2022/06/21 13:05:38;;;;;;;6.55;4.05;;;;;;;;;;6240901;28;20073;-76
2022/06/21 13:09:04;;;;;;;9.73;4.25;;;;;;;;;;6241532;28;20053;-75
2022/06/21 13:12:18;;;;;;;11.63;4.63;;;;;;;;;;6244805;28;20062;-76
2022/06/21 13:15:32;;;;;;;8.18;4.38;;;;;;;;;;6263083;28;20210;-77
2022/06/21 13:18:53;;;;;;;12.85;4.70;;;;;;;;;;6245436;28;20056;-75
2022/06/21 13:22:10;;;;;;;11.02;4.20;;;;;;;;;;6244366;28;20060;-77
2022/06/21 13:25:31;;;;;;;16.52;5.00;;;;;;;;;;6231521;28;20081;-75
2022/06/21 13:28:47;;;;;;;11.55;4.20;;;;;;;;;;6228309;28;20237;-75
2022/06/21 13:31:55;;;;;;;14.95;4.50;;;;;;;;;;6241320;28;20049;-75
2022/06/21 13:35:00;;;;;;;8.85;4.00;;;;;;;;;;6241809;28;20076;-76
2022/06/21 13:38:12;;;;;;;10.10;3.92;;;;;;;;;;6237364;28;20057;-76
2022/06/21 13:44:39;;;;;;;6.50;3.97;;;;;;;;;;6244933;28;20053;-76
2022/06/21 13:47:45;;;;;;;12.23;4.22;;;;;;;;;;6239413;28;20050;-78
2022/06/21 13:50:51;;;;;;;7.95;3.90;;;;;;;;;;6251176;28;20349;-78
2022/06/21 13:53:58;;;;;;;7.90;3.50;;;;;;;;;;6228320;28;20058;-77
2022/06/21 13:57:04;;;;;;;8.10;3.45;;;;;;;;;;6224599;28;20062;-77
2022/06/21 14:00:07;;;;;;;13.15;3.90;;;;;;;;;;6226386;28;20126;-77
2022/06/21 14:03:17;;;;;;;11.55;4.28;;;;;;;;;;6225554;28;20054;-77
2022/06/21 14:06:23;;;;;;;8.63;3.97;;;;;;;;;;6228581;28;20233;-77
2022/06/21 14:09:31;;;;;;;12.82;3.83;;;;;;;;;;6224600;28;20043;-77
2022/06/21 14:12:46;;;;;;;9.57;3.70;;;;;;;;;;6229918;28;20068;-77
2022/06/21 14:15:52;;;;;;;7.38;3.50;;;;;;;;;;6221920;28;20394;-77
2022/06/21 14:19:00;;;;;;;5.90;3.50;;;;;;;;;;6223067;28;20042;-76
2022/06/21 14:22:05;;;;;;;12.70;3.50;;;;;;;;;;6221769;28;20074;-77
2022/06/21 14:25:12;;;;;;;8.20;3.45;;;;;;;;;;6224057;28;20053;-78
2022/06/21 14:28:20;;;;;;;7.65;3.80;;;;;;;;;;6230459;28;20270;-78
2022/06/21 14:31:26;;;;;;;11.18;3.40;;;;;;;;;;6227684;28;20053;-79
2022/06/21 14:34:34;;;;;;;5.88;3.00;;;;;;;;;;6223413;28;20090;-79
2022/06/21 14:37:40;;;;;;;10.95;3.65;;;;;;;;;;6222631;28;20053;-80
2022/06/21 14:40:45;;;;;;;6.65;3.78;;;;;;;;;;6222066;28;20149;-79
2022/06/21 14:43:50;;;;;;;13.32;3.50;;;;;;;;;;6223061;28;20054;-79
2022/06/21 14:46:58;;;;;;;11.50;3.30;;;;;;;;;;6227528;28;20062;-80
2022/06/21 14:50:06;;;;;;;9.27;3.20;;;;;;;;;;6223177;28;20210;-79
2022/06/21 14:53:28;;;;;;;10.95;3.72;;;;;;;;;;6227499;28;20061;-78
2022/06/21 14:56:39;;;;;;;11.20;2.97;;;;;;;;;;6225195;28;20145;-78
2022/06/21 14:59:56;;;;;;;9.57;3.13;;;;;;;;;;6216922;28;20104;-77
2022/06/21 15:03:13;;;;;;;10.52;4.00;;;;;;;;;;6218345;28;20325;-78
2022/06/21 15:06:21;;;;;;;8.95;3.30;;;;;;;;;;6224894;28;20058;-80
2022/06/21 15:09:28;;;;;;;7.68;3.35;;;;;;;;;;6226353;28;20100;-78
2022/06/21 15:12:39;;;;;;;10.40;3.25;;;;;;;;;;6222342;28;20072;-78
2022/06/21 15:15:41;;;;;;;9.20;3.58;;;;;;;;;;6230959;28;20065;-78
2022/06/21 15:19:01;;;;;;;6.22;2.80;;;;;;;;;;6219083;28;20054;-78
2022/06/21 15:22:19;;;;;;;8.75;3.17;;;;;;;;;;6218565;28;20058;-78
2022/06/21 15:25:37;;;;;;;8.60;3.22;;;;;;;;;;6215531;28;20056;-79
2022/06/21 15:28:41;;;;;;;7.55;3.88;;;;;;;;;;6220073;28;20129;-79
2022/06/21 15:31:48;;;;;;;5.57;3.20;;;;;;;;;;6225919;28;20046;-79
2022/06/21 15:34:52;;;;;;;5.05;2.60;;;;;;;;;;6217283;28;20390;-79
2022/06/21 15:37:58;;;;;;;9.63;3.20;;;;;;;;;;6226580;28;20061;-79
2022/06/21 15:41:01;;;;;;;7.95;2.92;;;;;;;;;;6236188;28;20050;-78
2022/06/21 15:44:25;;;;;;;11.35;3.10;;;;;;;;;;6222994;28;20058;-78
2022/06/21 15:51:00;;;;;;;8.65;3.13;;;;;;;;;;6229410;28;20053;-78
2022/06/21 15:54:12;;;;;;;5.97;3.15;;;;;;;;;;6224841;28;20117;-77
2022/06/21 15:57:18;;;;;;;6.38;2.65;;;;;;;;;;6227395;28;20045;-77
2022/06/21 16:00:26;;;;;;;11.98;3.35;;;;;;;;;;6222672;28;20050;-78
2022/06/21 16:03:31;;;;;;;5.45;3.03;;;;;;;;;;6225080;28;20058;-77
2022/06/21 16:06:39;;;;;;;6.03;2.75;;;;;;;;;;6227802;28;20096;-77
2022/06/21 16:09:45;;;;;;;6.15;2.90;;;;;;;;;;6224154;28;20387;-78
2022/06/21 16:12:51;;;;;;;5.88;2.58;;;;;;;;;;6218993;28;20052;-79
2022/06/21 16:15:55;;;;;;;8.38;2.95;;;;;;;;;;6215720;28;20372;-79
2022/06/21 16:18:58;;;;;;;5.05;2.95;;;;;;;;;;6217549;28;20060;-79
2022/06/21 16:22:00;;;;;;;;;;;;;;;;;;6220227;28;20091;-79
2022/06/21 16:25:07;;;;;;;8.93;2.53;;;;;;;;;;6225576;28;19955;-78
2022/06/21 16:28:14;;;;;;;8.35;3.00;;;;;;;;;;6226979;28;20103;-77
2022/06/21 16:34:49;;;;;;;5.05;2.60;;;;;;;;;;6224637;28;20049;-79
2022/06/21 16:37:55;;;;;;;5.97;2.58;;;;;;;;;;6224872;28;20124;-78
2022/06/21 16:44:26;;;;;;;7.82;2.95;;;;;;;;;;6230151;28;20045;-80
2022/06/21 16:47:32;;;;;;;8.45;2.78;;;;;;;;;;6227618;28;20076;-78
2022/06/21 16:50:36;;;;;;;5.18;3.10;;;;;;;;;;6227310;28;20268;-78
2022/06/21 16:53:40;;;;;;;6.60;3.50;;;;;;;;;;6224372;28;20101;-79
2022/06/21 16:56:46;;;;;;;5.40;3.05;;;;;;;;;;6222875;28;20068;-78
2022/06/21 16:59:48;;;;;;;9.45;3.17;;;;;;;;;;6229117;28;20066;-79
2022/06/21 17:02:50;;;;;;;8.33;3.20;;;;;;;;;;6227668;28;20050;-78
2022/06/21 17:05:53;;;;;;;8.10;3.10;;;;;;;;;;6225124;28;20056;-78
2022/06/21 17:09:11;;;;;;;7.43;3.17;;;;;;;;;;6228718;28;20054;-77
2022/06/21 17:12:14;;;;;;;4.32;3.30;;;;;;;;;;6224710;28;20054;-77
2022/06/21 17:15:17;;;;;;;10.23;3.65;;;;;;;;;;6217186;28;20084;-78
2022/06/21 17:18:22;;;;;;;7.97;4.00;;;;;;;;;;6217647;28;20264;-76
2022/06/21 17:21:27;;;;;;;7.18;3.50;;;;;;;;;;6224306;28;20265;-78
2022/06/21 17:24:39;;;;;;;5.15;3.58;;;;;;;;;;6216878;28;20423;-75
2022/06/21 17:27:48;;;;;;;6.90;3.03;;;;;;;;;;6222313;28;20113;-81
2022/06/21 17:30:52;;;;;;;5.63;3.00;;;;;;;;;;6223287;28;20345;-78
2022/06/21 17:33:59;;;;;;;10.43;3.10;;;;;;;;;;6231031;28;20052;-77
2022/06/21 17:37:07;;;;;;;7.88;3.13;;;;;;;;;;6227915;28;20229;-74
2022/06/21 17:40:14;;;;;;;8.75;3.03;;;;;;;;;;6222204;28;20388;-77
2022/06/21 17:43:23;;;;;;;6.45;3.13;;;;;;;;;;6226056;28;20048;-77
2022/06/21 17:46:27;;;;;;;5.13;3.25;;;;;;;;;;6226907;28;20053;-78
2022/06/21 17:49:32;;;;;;;6.68;2.67;;;;;;;;;;6227258;28;20043;-78
2022/06/21 17:52:38;;;;;;;6.38;2.67;;;;;;;;;;6224681;28;20325;-78
2022/06/21 17:55:42;;;;;;;5.78;2.58;;;;;;;;;;6229817;28;20050;-78
2022/06/21 17:58:47;;;;;;;8.90;3.55;;;;;;;;;;6243757;28;20054;-78
2022/06/21 18:01:54;;;;;;;7.68;3.10;;;;;;;;;;6229708;28;20045;-78
2022/06/21 18:05:03;;;;;;;10.52;3.15;;;;;;;;;;6225352;28;20053;-78
2022/06/21 18:08:12;;;;;;;6.45;3.40;;;;;;;;;;6221437;28;20309;-78
2022/06/21 18:11:19;;;;;;;8.38;3.08;;;;;;;;;;6216213;28;20073;-79
2022/06/21 18:14:26;;;;;;;6.40;2.90;;;;;;;;;;6221762;28;20337;-77
2022/06/21 18:17:43;;;;;;;8.48;2.80;;;;;;;;;;6203488;28;20039;-80
2022/06/21 18:20:51;;;;;;;8.68;2.83;;;;;;;;;;6211753;28;20056;-79
2022/06/21 18:24:02;;;;;;;5.70;2.63;;;;;;;;;;6233129;28;20052;-80
2022/06/21 18:27:11;;;;;;;11.00;3.10;;;;;;;;;;6213965;28;20046;-80
2022/06/21 18:30:23;;;;;;;5.95;2.72;;;;;;;;;;6220218;28;20053;-79
2022/06/21 18:33:28;;;;;;;7.23;3.00;;;;;;;;;;6217717;28;20068;-77
2022/06/21 18:36:59;;;;;;;8.93;2.83;;;;;;;;;;6214672;28;20214;-80
2022/06/21 18:40:13;;;;;;;6.85;2.65;;;;;;;;;;6213824;28;20375;-77
2022/06/21 18:43:27;;;;;;;6.28;3.08;;;;;;;;;;6214515;28;20074;-79
2022/06/21 18:46:38;;;;;;;5.95;2.50;;;;;;;;;;6214541;28;20049;-79
2022/06/21 18:49:49;;;;;;;5.70;2.58;;;;;;;;;;6215419;28;20058;-79
2022/06/21 18:53:05;;;;;;;9.45;2.78;;;;;;;;;;6211885;28;20108;-79
2022/06/21 18:56:16;;;;;;;6.05;2.58;;;;;;;;;;6217550;28;20060;-79
2022/06/21 18:59:33;;;;;;;8.73;2.40;;;;;;;;;;6207809;28;20299;-77
2022/06/21 19:02:41;;;;;;;6.10;2.72;;;;;;;;;;6211408;28;20124;-79
2022/06/21 19:09:32;;;;;;;9.52;2.42;;;;;;;;;;6208669;28;20049;-77
2022/06/21 19:12:37;;;;;;;7.80;2.60;;;;;;;;;;6219747;28;20100;-78
2022/06/21 19:15:47;;;;;;;6.38;2.58;;;;;;;;;;6218778;28;20061;-78